Houston, Texas
Traffic Map
Current Weather Conditions
Houston, Texas
Scattered Clouds
Scattered Clouds
22°
Feels Like: 22°
Wind Chill: 22° Ceiling: Unl
Heat Index: 22° Visibility: 10mi
Dew Point: 20° Wind: 0mph
Humidity: 88% Direction: ° ()
Pressure: 29.88in Gusts: 0mph
Raw Report DataKMCJ 250315Z AUTO 00000KT 10SM SCT010 22/20 A2988 RMK AO1
Traffic Incident Summary
Active as of:
Severity:
Category:
InformationThere was an issue retrieving the traffic information for this location. Please try a different location or try again shortly.
Advertisements
At Last! Intellicast now available for iPhone and Android